sensor_id;sensor_type;location;lat;lon;timestamp;P1;durP1;ratioP1;P2;durP2;ratioP2
70303;SDS011;57712;48.752;11.348;2023-02-28T00:01:27;8.63;;;2.40;;
70303;SDS011;57712;48.752;11.348;2023-02-28T00:03:55;7.32;;;2.67;;
70303;SDS011;57712;48.752;11.348;2023-02-28T00:06:22;7.33;;;2.70;;
70303;SDS011;57712;48.752;11.348;2023-02-28T00:08:50;7.15;;;2.50;;
70303;SDS011;57712;48.752;11.348;2023-02-28T00:11:17;6.38;;;2.80;;
70303;SDS011;57712;48.752;11.348;2023-02-28T00:13:45;7.05;;;2.97;;
70303;SDS011;57712;48.752;11.348;2023-02-28T00:16:17;8.05;;;2.80;;
70303;SDS011;57712;48.752;11.348;2023-02-28T00:18:46;6.93;;;2.80;;
70303;SDS011;57712;48.752;11.348;2023-02-28T00:21:14;5.88;;;2.50;;
70303;SDS011;57712;48.752;11.348;2023-02-28T00:23:42;7.72;;;2.88;;
70303;SDS011;57712;48.752;11.348;2023-02-28T00:26:09;7.53;;;2.55;;
70303;SDS011;57712;48.752;11.348;2023-02-28T00:28:36;8.32;;;3.03;;
70303;SDS011;57712;48.752;11.348;2023-02-28T00:31:02;7.87;;;2.63;;
70303;SDS011;57712;48.752;11.348;2023-02-28T00:33:30;8.00;;;2.88;;
70303;SDS011;57712;48.752;11.348;2023-02-28T00:36:06;8.02;;;2.63;;
70303;SDS011;57712;48.752;11.348;2023-02-28T00:38:35;7.75;;;3.30;;
70303;SDS011;57712;48.752;11.348;2023-02-28T00:41:02;8.40;;;2.63;;
70303;SDS011;57712;48.752;11.348;2023-02-28T00:43:33;7.27;;;2.93;;
70303;SDS011;57712;48.752;11.348;2023-02-28T00:46:02;6.80;;;2.50;;
70303;SDS011;57712;48.752;11.348;2023-02-28T00:48:29;9.25;;;3.25;;
70303;SDS011;57712;48.752;11.348;2023-02-28T00:50:55;6.82;;;2.78;;
70303;SDS011;57712;48.752;11.348;2023-02-28T00:53:22;7.10;;;2.72;;
70303;SDS011;57712;48.752;11.348;2023-02-28T00:55:49;6.57;;;2.73;;
70303;SDS011;57712;48.752;11.348;2023-02-28T00:58:16;8.55;;;2.78;;
70303;SDS011;57712;48.752;11.348;2023-02-28T01:00:43;8.35;;;3.03;;
70303;SDS011;57712;48.752;11.348;2023-02-28T01:03:16;8.57;;;3.05;;
70303;SDS011;57712;48.752;11.348;2023-02-28T01:05:44;8.13;;;3.00;;
70303;SDS011;57712;48.752;11.348;2023-02-28T01:08:11;7.67;;;3.17;;
70303;SDS011;57712;48.752;11.348;2023-02-28T01:10:39;6.70;;;2.85;;
70303;SDS011;57712;48.752;11.348;2023-02-28T01:13:09;7.25;;;3.22;;
70303;SDS011;57712;48.752;11.348;2023-02-28T01:15:36;7.15;;;2.70;;
70303;SDS011;57712;48.752;11.348;2023-02-28T01:18:04;7.03;;;2.92;;
70303;SDS011;57712;48.752;11.348;2023-02-28T01:20:31;6.77;;;2.80;;
70303;SDS011;57712;48.752;11.348;2023-02-28T01:22:59;7.10;;;2.90;;
70303;SDS011;57712;48.752;11.348;2023-02-28T01:25:25;7.45;;;2.65;;
70303;SDS011;57712;48.752;11.348;2023-02-28T01:27:52;7.82;;;2.60;;
70303;SDS011;57712;48.752;11.348;2023-02-28T01:30:18;7.07;;;2.70;;
70303;SDS011;57712;48.752;11.348;2023-02-28T01:32:45;6.37;;;2.77;;
70303;SDS011;57712;48.752;11.348;2023-02-28T01:35:13;6.78;;;2.80;;
70303;SDS011;57712;48.752;11.348;2023-02-28T01:37:39;7.32;;;3.17;;
70303;SDS011;57712;48.752;11.348;2023-02-28T01:40:06;8.20;;;3.13;;
70303;SDS011;57712;48.752;11.348;2023-02-28T01:42:33;7.50;;;3.08;;
70303;SDS011;57712;48.752;11.348;2023-02-28T01:47:46;6.75;;;2.67;;
70303;SDS011;57712;48.752;11.348;2023-02-28T01:50:18;7.60;;;3.08;;
70303;SDS011;57712;48.752;11.348;2023-02-28T01:52:48;8.50;;;3.10;;
70303;SDS011;57712;48.752;11.348;2023-02-28T01:55:17;9.85;;;3.38;;
70303;SDS011;57712;48.752;11.348;2023-02-28T01:57:48;7.40;;;2.73;;
70303;SDS011;57712;48.752;11.348;2023-02-28T02:00:19;6.68;;;2.80;;
70303;SDS011;57712;48.752;11.348;2023-02-28T02:02:50;8.10;;;3.30;;
70303;SDS011;57712;48.752;11.348;2023-02-28T02:05:21;7.55;;;2.95;;
70303;SDS011;57712;48.752;11.348;2023-02-28T02:07:55;8.05;;;3.60;;
70303;SDS011;57712;48.752;11.348;2023-02-28T02:10:31;7.00;;;2.83;;
70303;SDS011;57712;48.752;11.348;2023-02-28T02:13:19;7.72;;;3.13;;
70303;SDS011;57712;48.752;11.348;2023-02-28T02:18:39;7.43;;;3.38;;
70303;SDS011;57712;48.752;11.348;2023-02-28T02:24:03;7.97;;;3.10;;
70303;SDS011;57712;48.752;11.348;2023-02-28T02:26:59;8.27;;;2.88;;
70303;SDS011;57712;48.752;11.348;2023-02-28T02:29:40;7.88;;;3.13;;
70303;SDS011;57712;48.752;11.348;2023-02-28T02:35:06;7.65;;;3.47;;
70303;SDS011;57712;48.752;11.348;2023-02-28T02:37:46;7.37;;;3.20;;
70303;SDS011;57712;48.752;11.348;2023-02-28T02:40:19;9.07;;;3.30;;
70303;SDS011;57712;48.752;11.348;2023-02-28T02:45:21;10.85;;;3.72;;
70303;SDS011;57712;48.752;11.348;2023-02-28T02:47:53;7.78;;;3.15;;
70303;SDS011;57712;48.752;11.348;2023-02-28T02:50:26;10.17;;;3.43;;
70303;SDS011;57712;48.752;11.348;2023-02-28T02:53:00;8.07;;;3.25;;
70303;SDS011;57712;48.752;11.348;2023-02-28T02:55:29;8.38;;;3.70;;
70303;SDS011;57712;48.752;11.348;2023-02-28T02:58:01;8.00;;;3.22;;
70303;SDS011;57712;48.752;11.348;2023-02-28T03:00:34;7.32;;;3.15;;
70303;SDS011;57712;48.752;11.348;2023-02-28T03:03:05;8.93;;;3.47;;
70303;SDS011;57712;48.752;11.348;2023-02-28T03:05:35;8.82;;;3.60;;
70303;SDS011;57712;48.752;11.348;2023-02-28T03:08:09;9.30;;;3.85;;
70303;SDS011;57712;48.752;11.348;2023-02-28T03:10:40;10.95;;;3.80;;
70303;SDS011;57712;48.752;11.348;2023-02-28T03:13:15;9.02;;;4.13;;
70303;SDS011;57712;48.752;11.348;2023-02-28T03:16:03;13.83;;;5.07;;
70303;SDS011;57712;48.752;11.348;2023-02-28T03:18:47;8.50;;;3.33;;
70303;SDS011;57712;48.752;11.348;2023-02-28T03:21:25;8.75;;;4.07;;
70303;SDS011;57712;48.752;11.348;2023-02-28T03:24:03;10.10;;;4.05;;
70303;SDS011;57712;48.752;11.348;2023-02-28T03:26:36;7.97;;;3.33;;
70303;SDS011;57712;48.752;11.348;2023-02-28T03:29:15;8.67;;;3.73;;
70303;SDS011;57712;48.752;11.348;2023-02-28T03:31:48;9.88;;;3.78;;
70303;SDS011;57712;48.752;11.348;2023-02-28T03:34:34;8.95;;;3.88;;
70303;SDS011;57712;48.752;11.348;2023-02-28T03:37:12;9.55;;;3.92;;
70303;SDS011;57712;48.752;11.348;2023-02-28T03:39:44;8.70;;;3.83;;
70303;SDS011;57712;48.752;11.348;2023-02-28T03:42:25;9.43;;;4.17;;
70303;SDS011;57712;48.752;11.348;2023-02-28T03:47:49;12.18;;;4.72;;
70303;SDS011;57712;48.752;11.348;2023-02-28T03:50:20;9.00;;;4.10;;
70303;SDS011;57712;48.752;11.348;2023-02-28T03:52:53;10.45;;;4.00;;
70303;SDS011;57712;48.752;11.348;2023-02-28T03:55:28;9.50;;;3.73;;
70303;SDS011;57712;48.752;11.348;2023-02-28T03:58:04;8.77;;;4.47;;
70303;SDS011;57712;48.752;11.348;2023-02-28T04:00:40;10.00;;;4.40;;
70303;SDS011;57712;48.752;11.348;2023-02-28T04:03:13;9.18;;;4.40;;
70303;SDS011;57712;48.752;11.348;2023-02-28T04:05:50;10.52;;;4.22;;
70303;SDS011;57712;48.752;11.348;2023-02-28T04:08:19;8.43;;;4.03;;
70303;SDS011;57712;48.752;11.348;2023-02-28T04:10:48;9.88;;;4.32;;
70303;SDS011;57712;48.752;11.348;2023-02-28T04:13:20;8.50;;;3.80;;
70303;SDS011;57712;48.752;11.348;2023-02-28T04:15:47;10.88;;;4.53;;
70303;SDS011;57712;48.752;11.348;2023-02-28T04:18:13;11.85;;;4.63;;
70303;SDS011;57712;48.752;11.348;2023-02-28T04:20:40;9.13;;;3.83;;
70303;SDS011;57712;48.752;11.348;2023-02-28T04:23:06;9.27;;;4.30;;
70303;SDS011;57712;48.752;11.348;2023-02-28T04:25:33;9.52;;;4.53;;
70303;SDS011;57712;48.752;11.348;2023-02-28T04:28:00;11.65;;;4.72;;
70303;SDS011;57712;48.752;11.348;2023-02-28T04:30:27;9.50;;;4.50;;
70303;SDS011;57712;48.752;11.348;2023-02-28T04:32:55;9.97;;;4.73;;
70303;SDS011;57712;48.752;11.348;2023-02-28T04:35:22;9.15;;;4.00;;
70303;SDS011;57712;48.752;11.348;2023-02-28T04:37:49;10.45;;;4.55;;
70303;SDS011;57712;48.752;11.348;2023-02-28T04:40:15;9.48;;;4.20;;
70303;SDS011;57712;48.752;11.348;2023-02-28T04:42:42;11.63;;;4.60;;
70303;SDS011;57712;48.752;11.348;2023-02-28T04:45:09;19.67;;;5.97;;
70303;SDS011;57712;48.752;11.348;2023-02-28T04:47:36;12.27;;;5.07;;
70303;SDS011;57712;48.752;11.348;2023-02-28T04:50:03;11.35;;;4.65;;
70303;SDS011;57712;48.752;11.348;2023-02-28T04:52:29;10.85;;;4.22;;
70303;SDS011;57712;48.752;11.348;2023-02-28T04:54:56;10.88;;;4.80;;
70303;SDS011;57712;48.752;11.348;2023-02-28T04:57:22;11.03;;;4.60;;
70303;SDS011;57712;48.752;11.348;2023-02-28T04:59:49;11.18;;;4.57;;
70303;SDS011;57712;48.752;11.348;2023-02-28T05:02:15;9.93;;;4.90;;
70303;SDS011;57712;48.752;11.348;2023-02-28T05:04:42;10.82;;;5.30;;
70303;SDS011;57712;48.752;11.348;2023-02-28T05:07:08;12.15;;;5.07;;
70303;SDS011;57712;48.752;11.348;2023-02-28T05:09:36;11.30;;;4.87;;
70303;SDS011;57712;48.752;11.348;2023-02-28T05:12:02;13.48;;;5.55;;
70303;SDS011;57712;48.752;11.348;2023-02-28T05:14:29;10.23;;;4.80;;
70303;SDS011;57712;48.752;11.348;2023-02-28T05:16:56;11.18;;;4.65;;
70303;SDS011;57712;48.752;11.348;2023-02-28T05:19:23;10.65;;;4.80;;
70303;SDS011;57712;48.752;11.348;2023-02-28T05:21:54;11.43;;;5.17;;
70303;SDS011;57712;48.752;11.348;2023-02-28T05:24:21;12.73;;;4.95;;
70303;SDS011;57712;48.752;11.348;2023-02-28T05:26:51;12.38;;;5.07;;
70303;SDS011;57712;48.752;11.348;2023-02-28T05:29:19;12.07;;;5.15;;
70303;SDS011;57712;48.752;11.348;2023-02-28T05:31:45;11.50;;;5.07;;
70303;SDS011;57712;48.752;11.348;2023-02-28T05:34:12;12.07;;;5.70;;
70303;SDS011;57712;48.752;11.348;2023-02-28T05:36:41;12.73;;;5.53;;
70303;SDS011;57712;48.752;11.348;2023-02-28T05:39:08;11.93;;;5.38;;
70303;SDS011;57712;48.752;11.348;2023-02-28T05:41:40;12.93;;;5.13;;
70303;SDS011;57712;48.752;11.348;2023-02-28T05:44:10;10.68;;;5.40;;
70303;SDS011;57712;48.752;11.348;2023-02-28T05:46:40;14.17;;;5.73;;
70303;SDS011;57712;48.752;11.348;2023-02-28T05:49:07;11.07;;;5.35;;
70303;SDS011;57712;48.752;11.348;2023-02-28T05:51:33;14.25;;;5.70;;
70303;SDS011;57712;48.752;11.348;2023-02-28T05:54:05;12.25;;;5.55;;
70303;SDS011;57712;48.752;11.348;2023-02-28T05:56:33;11.77;;;5.20;;
70303;SDS011;57712;48.752;11.348;2023-02-28T05:59:05;12.00;;;5.50;;
70303;SDS011;57712;48.752;11.348;2023-02-28T06:01:39;12.35;;;5.57;;
70303;SDS011;57712;48.752;11.348;2023-02-28T06:04:09;13.18;;;5.90;;
70303;SDS011;57712;48.752;11.348;2023-02-28T06:06:54;12.55;;;5.38;;
70303;SDS011;57712;48.752;11.348;2023-02-28T06:09:23;16.00;;;6.68;;
70303;SDS011;57712;48.752;11.348;2023-02-28T06:11:51;18.17;;;6.20;;
70303;SDS011;57712;48.752;11.348;2023-02-28T06:14:18;15.23;;;6.50;;
70303;SDS011;57712;48.752;11.348;2023-02-28T06:16:45;12.38;;;5.72;;
70303;SDS011;57712;48.752;11.348;2023-02-28T06:19:12;15.02;;;6.10;;
70303;SDS011;57712;48.752;11.348;2023-02-28T06:21:39;15.07;;;6.15;;
70303;SDS011;57712;48.752;11.348;2023-02-28T06:24:06;13.00;;;6.30;;
70303;SDS011;57712;48.752;11.348;2023-02-28T06:26:40;13.60;;;6.50;;
70303;SDS011;57712;48.752;11.348;2023-02-28T06:29:06;14.55;;;7.78;;
70303;SDS011;57712;48.752;11.348;2023-02-28T06:31:33;14.93;;;6.43;;
70303;SDS011;57712;48.752;11.348;2023-02-28T06:34:00;14.90;;;6.38;;
70303;SDS011;57712;48.752;11.348;2023-02-28T06:36:27;13.00;;;5.33;;
70303;SDS011;57712;48.752;11.348;2023-02-28T06:38:54;12.75;;;5.80;;
70303;SDS011;57712;48.752;11.348;2023-02-28T06:41:24;11.75;;;5.85;;
70303;SDS011;57712;48.752;11.348;2023-02-28T06:43:54;14.63;;;6.78;;
70303;SDS011;57712;48.752;11.348;2023-02-28T06:46:21;13.80;;;7.00;;
70303;SDS011;57712;48.752;11.348;2023-02-28T06:48:48;14.53;;;7.50;;
70303;SDS011;57712;48.752;11.348;2023-02-28T06:51:16;14.05;;;6.45;;
70303;SDS011;57712;48.752;11.348;2023-02-28T06:53:46;15.10;;;6.38;;
70303;SDS011;57712;48.752;11.348;2023-02-28T06:56:13;16.02;;;6.95;;
70303;SDS011;57712;48.752;11.348;2023-02-28T06:58:41;12.73;;;5.78;;
70303;SDS011;57712;48.752;11.348;2023-02-28T07:01:13;14.70;;;6.87;;
70303;SDS011;57712;48.752;11.348;2023-02-28T07:03:40;13.05;;;6.15;;
70303;SDS011;57712;48.752;11.348;2023-02-28T07:06:07;14.90;;;8.18;;
70303;SDS011;57712;48.752;11.348;2023-02-28T07:08:34;16.55;;;7.18;;
70303;SDS011;57712;48.752;11.348;2023-02-28T07:11:01;21.08;;;8.20;;
70303;SDS011;57712;48.752;11.348;2023-02-28T07:13:28;18.43;;;7.83;;
70303;SDS011;57712;48.752;11.348;2023-02-28T07:16:05;13.70;;;6.57;;
70303;SDS011;57712;48.752;11.348;2023-02-28T07:18:35;16.63;;;7.35;;
70303;SDS011;57712;48.752;11.348;2023-02-28T07:21:03;14.98;;;7.22;;
70303;SDS011;57712;48.752;11.348;2023-02-28T07:23:31;12.20;;;5.95;;
70303;SDS011;57712;48.752;11.348;2023-02-28T07:25:57;12.23;;;6.00;;
70303;SDS011;57712;48.752;11.348;2023-02-28T07:28:24;29.33;;;12.68;;
70303;SDS011;57712;48.752;11.348;2023-02-28T07:30:51;17.10;;;8.20;;
70303;SDS011;57712;48.752;11.348;2023-02-28T07:33:18;14.77;;;6.60;;
70303;SDS011;57712;48.752;11.348;2023-02-28T07:35:45;16.95;;;7.20;;
70303;SDS011;57712;48.752;11.348;2023-02-28T07:38:12;17.87;;;7.73;;
70303;SDS011;57712;48.752;11.348;2023-02-28T07:40:40;15.75;;;7.28;;
70303;SDS011;57712;48.752;11.348;2023-02-28T07:43:06;15.00;;;6.50;;
70303;SDS011;57712;48.752;11.348;2023-02-28T07:45:33;14.23;;;6.03;;
70303;SDS011;57712;48.752;11.348;2023-02-28T07:48:03;13.43;;;6.45;;
70303;SDS011;57712;48.752;11.348;2023-02-28T07:50:30;14.47;;;6.93;;
70303;SDS011;57712;48.752;11.348;2023-02-28T07:52:57;12.48;;;5.80;;
70303;SDS011;57712;48.752;11.348;2023-02-28T07:55:25;12.60;;;6.45;;
70303;SDS011;57712;48.752;11.348;2023-02-28T07:57:51;12.32;;;5.80;;
70303;SDS011;57712;48.752;11.348;2023-02-28T08:00:18;13.43;;;5.88;;
70303;SDS011;57712;48.752;11.348;2023-02-28T08:02:45;14.03;;;6.23;;
70303;SDS011;57712;48.752;11.348;2023-02-28T08:05:11;13.40;;;5.72;;
70303;SDS011;57712;48.752;11.348;2023-02-28T08:07:38;12.70;;;6.80;;
70303;SDS011;57712;48.752;11.348;2023-02-28T08:10:05;12.07;;;5.32;;
70303;SDS011;57712;48.752;11.348;2023-02-28T08:12:32;12.63;;;6.32;;
70303;SDS011;57712;48.752;11.348;2023-02-28T08:14:59;12.00;;;5.70;;
70303;SDS011;57712;48.752;11.348;2023-02-28T08:17:25;13.90;;;5.72;;
70303;SDS011;57712;48.752;11.348;2023-02-28T08:19:52;12.75;;;5.40;;
70303;SDS011;57712;48.752;11.348;2023-02-28T08:22:18;13.85;;;5.95;;
70303;SDS011;57712;48.752;11.348;2023-02-28T08:24:45;11.88;;;5.70;;
70303;SDS011;57712;48.752;11.348;2023-02-28T08:27:12;11.17;;;5.10;;
70303;SDS011;57712;48.752;11.348;2023-02-28T08:29:39;14.52;;;6.55;;
70303;SDS011;57712;48.752;11.348;2023-02-28T08:32:06;17.63;;;12.52;;
70303;SDS011;57712;48.752;11.348;2023-02-28T08:34:42;12.85;;;6.50;;
70303;SDS011;57712;48.752;11.348;2023-02-28T08:37:11;13.60;;;5.55;;
70303;SDS011;57712;48.752;11.348;2023-02-28T08:39:37;11.60;;;5.83;;
70303;SDS011;57712;48.752;11.348;2023-02-28T08:42:04;10.65;;;5.47;;
70303;SDS011;57712;48.752;11.348;2023-02-28T08:44:33;11.98;;;5.97;;
70303;SDS011;57712;48.752;11.348;2023-02-28T08:46:59;12.07;;;5.80;;
70303;SDS011;57712;48.752;11.348;2023-02-28T08:49:26;11.40;;;5.82;;
70303;SDS011;57712;48.752;11.348;2023-02-28T08:51:52;9.60;;;5.00;;
70303;SDS011;57712;48.752;11.348;2023-02-28T08:54:20;11.05;;;5.40;;
70303;SDS011;57712;48.752;11.348;2023-02-28T08:56:47;12.07;;;5.53;;
70303;SDS011;57712;48.752;11.348;2023-02-28T08:59:14;11.93;;;5.30;;
70303;SDS011;57712;48.752;11.348;2023-02-28T09:01:41;12.07;;;5.57;;
70303;SDS011;57712;48.752;11.348;2023-02-28T09:04:09;13.27;;;5.43;;
70303;SDS011;57712;48.752;11.348;2023-02-28T09:06:42;14.00;;;5.25;;
70303;SDS011;57712;48.752;11.348;2023-02-28T09:09:10;12.45;;;5.65;;
70303;SDS011;57712;48.752;11.348;2023-02-28T09:11:37;10.95;;;5.13;;
70303;SDS011;57712;48.752;11.348;2023-02-28T09:14:03;12.20;;;5.28;;
70303;SDS011;57712;48.752;11.348;2023-02-28T09:16:30;10.30;;;4.60;;
70303;SDS011;57712;48.752;11.348;2023-02-28T09:18:59;10.52;;;5.32;;
70303;SDS011;57712;48.752;11.348;2023-02-28T09:21:26;12.18;;;4.95;;
70303;SDS011;57712;48.752;11.348;2023-02-28T09:23:53;11.88;;;5.15;;
70303;SDS011;57712;48.752;11.348;2023-02-28T09:26:22;12.43;;;5.68;;
70303;SDS011;57712;48.752;11.348;2023-02-28T09:28:50;10.63;;;5.30;;
70303;SDS011;57712;48.752;11.348;2023-02-28T09:31:19;11.48;;;5.15;;
70303;SDS011;57712;48.752;11.348;2023-02-28T09:33:51;11.30;;;5.82;;
70303;SDS011;57712;48.752;11.348;2023-02-28T09:36:19;10.18;;;5.20;;
70303;SDS011;57712;48.752;11.348;2023-02-28T09:38:48;11.27;;;5.32;;
70303;SDS011;57712;48.752;11.348;2023-02-28T09:41:19;11.77;;;5.53;;
70303;SDS011;57712;48.752;11.348;2023-02-28T09:43:55;13.25;;;5.45;;
70303;SDS011;57712;48.752;11.348;2023-02-28T09:46:37;11.15;;;5.38;;
70303;SDS011;57712;48.752;11.348;2023-02-28T09:49:10;10.25;;;4.40;;
70303;SDS011;57712;48.752;11.348;2023-02-28T09:51:56;14.55;;;5.35;;
70303;SDS011;57712;48.752;11.348;2023-02-28T09:54:28;11.93;;;5.57;;
70303;SDS011;57712;48.752;11.348;2023-02-28T09:56:59;11.18;;;5.30;;
70303;SDS011;57712;48.752;11.348;2023-02-28T09:59:33;10.32;;;4.97;;
70303;SDS011;57712;48.752;11.348;2023-02-28T10:05:09;11.43;;;5.45;;
70303;SDS011;57712;48.752;11.348;2023-02-28T10:13:10;11.68;;;5.47;;
70303;SDS011;57712;48.752;11.348;2023-02-28T10:16:01;9.82;;;5.00;;
70303;SDS011;57712;48.752;11.348;2023-02-28T10:18:52;12.57;;;5.78;;
70303;SDS011;57712;48.752;11.348;2023-02-28T10:21:26;10.70;;;5.37;;
70303;SDS011;57712;48.752;11.348;2023-02-28T10:24:10;10.27;;;4.97;;
70303;SDS011;57712;48.752;11.348;2023-02-28T10:26:43;11.40;;;6.63;;
70303;SDS011;57712;48.752;11.348;2023-02-28T10:29:11;10.38;;;5.20;;
70303;SDS011;57712;48.752;11.348;2023-02-28T10:31:38;9.82;;;5.28;;
70303;SDS011;57712;48.752;11.348;2023-02-28T10:34:05;11.17;;;5.00;;
70303;SDS011;57712;48.752;11.348;2023-02-28T10:36:32;12.00;;;4.93;;
70303;SDS011;57712;48.752;11.348;2023-02-28T10:39:01;11.50;;;5.45;;
70303;SDS011;57712;48.752;11.348;2023-02-28T10:41:45;10.18;;;4.75;;
70303;SDS011;57712;48.752;11.348;2023-02-28T10:44:13;12.20;;;4.90;;
70303;SDS011;57712;48.752;11.348;2023-02-28T10:46:48;12.17;;;5.37;;
70303;SDS011;57712;48.752;11.348;2023-02-28T10:49:49;10.98;;;5.82;;
70303;SDS011;57712;48.752;11.348;2023-02-28T10:52:13;10.95;;;5.72;;
70303;SDS011;57712;48.752;11.348;2023-02-28T10:54:39;9.95;;;5.00;;
70303;SDS011;57712;48.752;11.348;2023-02-28T10:57:08;10.35;;;5.13;;
70303;SDS011;57712;48.752;11.348;2023-02-28T10:59:44;12.27;;;6.10;;
70303;SDS011;57712;48.752;11.348;2023-02-28T11:02:28;10.00;;;5.90;;
70303;SDS011;57712;48.752;11.348;2023-02-28T11:05:22;10.85;;;5.57;;
70303;SDS011;57712;48.752;11.348;2023-02-28T11:10:44;10.82;;;5.65;;
70303;SDS011;57712;48.752;11.348;2023-02-28T11:13:16;10.07;;;5.43;;
70303;SDS011;57712;48.752;11.348;2023-02-28T11:15:52;9.80;;;5.22;;
70303;SDS011;57712;48.752;11.348;2023-02-28T11:18:21;11.48;;;5.90;;
70303;SDS011;57712;48.752;11.348;2023-02-28T11:20:53;11.02;;;5.50;;
70303;SDS011;57712;48.752;11.348;2023-02-28T11:23:22;11.18;;;5.85;;
70303;SDS011;57712;48.752;11.348;2023-02-28T11:25:52;23.90;;;6.03;;
70303;SDS011;57712;48.752;11.348;2023-02-28T11:28:33;10.98;;;5.72;;
70303;SDS011;57712;48.752;11.348;2023-02-28T11:33:44;12.60;;;5.97;;
70303;SDS011;57712;48.752;11.348;2023-02-28T11:36:27;9.73;;;5.55;;
70303;SDS011;57712;48.752;11.348;2023-02-28T11:39:07;11.27;;;5.60;;
70303;SDS011;57712;48.752;11.348;2023-02-28T11:44:30;10.75;;;5.53;;
70303;SDS011;57712;48.752;11.348;2023-02-28T11:47:04;11.50;;;6.50;;
70303;SDS011;57712;48.752;11.348;2023-02-28T11:49:50;12.52;;;6.28;;
70303;SDS011;57712;48.752;11.348;2023-02-28T11:55:23;10.23;;;5.50;;
70303;SDS011;57712;48.752;11.348;2023-02-28T12:03:31;10.82;;;6.20;;
70303;SDS011;57712;48.752;11.348;2023-02-28T12:06:29;13.33;;;7.17;;
70303;SDS011;57712;48.752;11.348;2023-02-28T12:12:22;11.40;;;5.85;;
70303;SDS011;57712;48.752;11.348;2023-02-28T12:15:02;10.35;;;5.22;;
70303;SDS011;57712;48.752;11.348;2023-02-28T12:17:46;11.18;;;6.07;;
70303;SDS011;57712;48.752;11.348;2023-02-28T12:20:25;11.37;;;6.07;;
70303;SDS011;57712;48.752;11.348;2023-02-28T12:23:23;11.02;;;6.65;;
70303;SDS011;57712;48.752;11.348;2023-02-28T12:26:11;10.52;;;5.82;;
70303;SDS011;57712;48.752;11.348;2023-02-28T12:29:00;10.63;;;5.57;;
70303;SDS011;57712;48.752;11.348;2023-02-28T12:31:55;10.85;;;5.97;;
70303;SDS011;57712;48.752;11.348;2023-02-28T12:34:31;10.23;;;6.37;;
70303;SDS011;57712;48.752;11.348;2023-02-28T12:37:04;10.68;;;6.15;;
70303;SDS011;57712;48.752;11.348;2023-02-28T12:39:38;11.93;;;6.03;;
70303;SDS011;57712;48.752;11.348;2023-02-28T12:42:36;14.90;;;8.20;;
70303;SDS011;57712;48.752;11.348;2023-02-28T12:45:11;11.50;;;5.95;;
70303;SDS011;57712;48.752;11.348;2023-02-28T12:47:44;10.83;;;5.80;;
70303;SDS011;57712;48.752;11.348;2023-02-28T12:50:12;11.25;;;6.10;;
70303;SDS011;57712;48.752;11.348;2023-02-28T12:55:52;10.93;;;6.32;;
70303;SDS011;57712;48.752;11.348;2023-02-28T12:58:35;10.48;;;6.82;;
70303;SDS011;57712;48.752;11.348;2023-02-28T13:04:24;10.48;;;6.03;;
70303;SDS011;57712;48.752;11.348;2023-02-28T13:09:57;12.02;;;6.65;;
70303;SDS011;57712;48.752;11.348;2023-02-28T13:12:25;12.13;;;6.03;;
70303;SDS011;57712;48.752;11.348;2023-02-28T13:15:01;10.73;;;5.97;;
70303;SDS011;57712;48.752;11.348;2023-02-28T13:17:39;11.23;;;6.07;;
70303;SDS011;57712;48.752;11.348;2023-02-28T13:20:17;11.82;;;6.43;;
70303;SDS011;57712;48.752;11.348;2023-02-28T13:23:35;11.15;;;6.63;;
70303;SDS011;57712;48.752;11.348;2023-02-28T13:26:03;11.57;;;6.55;;
70303;SDS011;57712;48.752;11.348;2023-02-28T13:31:14;11.00;;;6.50;;
70303;SDS011;57712;48.752;11.348;2023-02-28T13:38:45;11.85;;;5.90;;
70303;SDS011;57712;48.752;11.348;2023-02-28T13:51:55;10.95;;;6.78;;
70303;SDS011;57712;48.752;11.348;2023-02-28T13:57:08;12.05;;;6.30;;
70303;SDS011;57712;48.752;11.348;2023-02-28T14:02:36;12.20;;;6.78;;
70303;SDS011;57712;48.752;11.348;2023-02-28T14:05:15;11.57;;;6.47;;
70303;SDS011;57712;48.752;11.348;2023-02-28T14:07:48;12.40;;;6.40;;
70303;SDS011;57712;48.752;11.348;2023-02-28T14:10:39;11.27;;;6.18;;
70303;SDS011;57712;48.752;11.348;2023-02-28T14:13:12;11.73;;;6.47;;
70303;SDS011;57712;48.752;11.348;2023-02-28T14:16:00;12.35;;;6.63;;
70303;SDS011;57712;48.752;11.348;2023-02-28T14:18:30;12.13;;;6.60;;
70303;SDS011;57712;48.752;11.348;2023-02-28T14:21:04;11.77;;;6.27;;
70303;SDS011;57712;48.752;11.348;2023-02-28T14:32:01;12.60;;;6.32;;
70303;SDS011;57712;48.752;11.348;2023-02-28T14:34:53;13.47;;;6.47;;
70303;SDS011;57712;48.752;11.348;2023-02-28T14:37:43;10.25;;;5.97;;
70303;SDS011;57712;48.752;11.348;2023-02-28T14:40:22;13.57;;;6.55;;
70303;SDS011;57712;48.752;11.348;2023-02-28T14:42:58;12.10;;;6.40;;
70303;SDS011;57712;48.752;11.348;2023-02-28T14:45:27;13.02;;;6.13;;
70303;SDS011;57712;48.752;11.348;2023-02-28T14:47:57;13.53;;;6.77;;
70303;SDS011;57712;48.752;11.348;2023-02-28T14:50:34;13.27;;;7.15;;
70303;SDS011;57712;48.752;11.348;2023-02-28T14:53:03;12.20;;;6.40;;
70303;SDS011;57712;48.752;11.348;2023-02-28T14:55:43;13.02;;;6.55;;
70303;SDS011;57712;48.752;11.348;2023-02-28T14:58:22;12.60;;;7.13;;
70303;SDS011;57712;48.752;11.348;2023-02-28T15:00:52;14.10;;;6.60;;
70303;SDS011;57712;48.752;11.348;2023-02-28T15:03:30;12.98;;;7.00;;
70303;SDS011;57712;48.752;11.348;2023-02-28T15:06:13;11.50;;;6.28;;
70303;SDS011;57712;48.752;11.348;2023-02-28T15:08:43;12.65;;;5.95;;
70303;SDS011;57712;48.752;11.348;2023-02-28T15:11:14;19.58;;;11.65;;
70303;SDS011;57712;48.752;11.348;2023-02-28T15:13:48;13.00;;;6.73;;
70303;SDS011;57712;48.752;11.348;2023-02-28T15:16:19;13.07;;;6.57;;
70303;SDS011;57712;48.752;11.348;2023-02-28T15:18:50;13.20;;;7.25;;
70303;SDS011;57712;48.752;11.348;2023-02-28T15:24:12;15.18;;;8.30;;
70303;SDS011;57712;48.752;11.348;2023-02-28T15:26:51;17.47;;;10.43;;
70303;SDS011;57712;48.752;11.348;2023-02-28T15:29:22;13.65;;;8.07;;
70303;SDS011;57712;48.752;11.348;2023-02-28T15:31:51;15.73;;;8.80;;
70303;SDS011;57712;48.752;11.348;2023-02-28T15:39:54;16.83;;;7.20;;
70303;SDS011;57712;48.752;11.348;2023-02-28T15:42:22;15.65;;;7.88;;
70303;SDS011;57712;48.752;11.348;2023-02-28T15:44:53;14.13;;;7.38;;
70303;SDS011;57712;48.752;11.348;2023-02-28T15:47:21;12.23;;;6.90;;
70303;SDS011;57712;48.752;11.348;2023-02-28T15:49:51;15.15;;;7.22;;
70303;SDS011;57712;48.752;11.348;2023-02-28T15:52:22;13.17;;;6.70;;
70303;SDS011;57712;48.752;11.348;2023-02-28T15:54:54;14.30;;;6.78;;
70303;SDS011;57712;48.752;11.348;2023-02-28T15:57:21;14.98;;;7.63;;
70303;SDS011;57712;48.752;11.348;2023-02-28T15:59:56;14.35;;;7.25;;
70303;SDS011;57712;48.752;11.348;2023-02-28T16:02:31;15.25;;;7.47;;
70303;SDS011;57712;48.752;11.348;2023-02-28T16:07:42;14.55;;;8.93;;
70303;SDS011;57712;48.752;11.348;2023-02-28T16:10:10;13.18;;;6.72;;
70303;SDS011;57712;48.752;11.348;2023-02-28T16:12:38;13.43;;;7.05;;
70303;SDS011;57712;48.752;11.348;2023-02-28T16:15:09;14.88;;;6.60;;
70303;SDS011;57712;48.752;11.348;2023-02-28T16:17:53;13.10;;;6.60;;
70303;SDS011;57712;48.752;11.348;2023-02-28T16:20:21;14.13;;;6.60;;
70303;SDS011;57712;48.752;11.348;2023-02-28T16:22:50;15.95;;;9.32;;
70303;SDS011;57712;48.752;11.348;2023-02-28T16:25:17;14.73;;;7.70;;
70303;SDS011;57712;48.752;11.348;2023-02-28T16:27:50;17.55;;;9.95;;
70303;SDS011;57712;48.752;11.348;2023-02-28T16:30:21;14.20;;;7.40;;